Time;durP1;ratioP1;P1;durP2;ratioP2;P2;SDS_P1;SDS_P2;PMS_P1;PMS_P2;Temp;Humidity;BMP_temperature;BMP_pressure;BME280_temperature;BME280_humidity;BME280_pressure;Samples;Min_cycle;Max_cycle;Signal;HPM_P1;HPM_P2
2021/01/21 00:01:41;;;;;;;4.87;1.53;;;11.50;99.90;;;;;;5019537;28;20553;-77
2021/01/21 00:04:07;;;;;;;5.33;1.20;;;11.40;99.90;;;;;;5015374;28;20450;-76
2021/01/21 00:06:34;;;;;;;2.90;1.20;;;11.40;99.90;;;;;;5013407;28;20938;-83
2021/01/21 00:09:01;;;;;;;3.33;1.27;;;11.40;99.90;;;;;;5035343;28;20599;-77
2021/01/21 00:11:27;;;;;;;5.30;1.17;;;11.40;99.90;;;;;;5028164;28;20453;-77
2021/01/21 00:13:54;;;;;;;4.60;1.33;;;11.30;99.90;;;;;;5025378;28;21301;-76
2021/01/21 00:16:21;;;;;;;5.00;1.53;;;11.20;99.90;;;;;;5012452;28;20463;-76
2021/01/21 00:18:47;;;;;;;3.07;2.20;;;11.10;99.90;;;;;;5013393;28;20458;-76
2021/01/21 00:21:13;;;;;;;2.50;1.20;;;11.10;99.90;;;;;;5016104;28;20458;-77
2021/01/21 00:23:40;;;;;;;5.03;1.20;;;11.20;99.90;;;;;;5015724;28;20553;-76
2021/01/21 00:26:06;;;;;;;3.40;1.20;;;11.30;99.90;;;;;;5015562;28;20450;-76
2021/01/21 00:28:32;;;;;;;4.23;1.40;;;11.30;99.90;;;;;;5015012;28;20453;-81
2021/01/21 00:30:59;;;;;;;5.77;1.40;;;11.40;99.90;;;;;;5015550;28;20863;-76
2021/01/21 00:33:26;;;;;;;4.43;1.27;;;11.40;99.90;;;;;;5014557;28;20485;-77
2021/01/21 00:35:52;;;;;;;5.80;1.77;;;11.40;99.90;;;;;;5014897;28;20460;-76
2021/01/21 00:38:18;;;;;;;2.53;1.10;;;11.30;99.90;;;;;;5015190;28;20890;-76
2021/01/21 00:40:45;;;;;;;3.60;1.00;;;11.30;99.90;;;;;;5015065;28;20446;-77
2021/01/21 00:43:11;;;;;;;6.00;1.60;;;11.20;99.90;;;;;;5015008;28;20473;-77
2021/01/21 00:45:38;;;;;;;3.87;1.10;;;11.20;99.90;;;;;;5014949;28;20528;-76
2021/01/21 00:48:05;;;;;;;4.93;1.60;;;11.10;99.90;;;;;;5015529;28;20538;-76
2021/01/21 00:50:32;;;;;;;3.87;1.20;;;11.20;99.90;;;;;;5014915;28;20893;-82
2021/01/21 00:52:59;;;;;;;4.10;1.30;;;11.10;99.90;;;;;;5014768;28;20491;-77
2021/01/21 00:55:25;;;;;;;3.40;1.20;;;11.10;99.90;;;;;;5014732;28;20549;-76
2021/01/21 00:57:51;;;;;;;2.70;1.10;;;11.10;99.90;;;;;;5014382;28;21132;-77
2021/01/21 01:00:19;;;;;;;3.30;1.27;;;11.00;99.90;;;;;;5014505;28;20453;-76
2021/01/21 01:02:45;;;;;;;4.53;1.33;;;11.00;99.90;;;;;;5015437;28;20457;-76
2021/01/21 01:05:12;;;;;;;5.67;1.30;;;10.90;99.90;;;;;;5015042;28;20453;-76
2021/01/21 01:07:39;;;;;;;3.60;1.30;;;10.90;99.90;;;;;;5014499;28;20460;-76
2021/01/21 01:10:06;;;;;;;6.30;1.53;;;10.90;99.90;;;;;;5015207;28;20445;-76
2021/01/21 01:12:33;;;;;;;4.83;1.20;;;10.90;99.90;;;;;;5015160;28;20572;-83
2021/01/21 01:14:59;;;;;;;3.00;1.20;;;10.90;99.90;;;;;;5014870;28;20441;-76
2021/01/21 01:17:25;;;;;;;5.73;1.47;;;11.00;99.90;;;;;;5015303;28;20541;-76
2021/01/21 01:19:52;;;;;;;3.50;1.03;;;11.10;99.90;;;;;;5013893;28;20454;-77
2021/01/21 01:22:18;;;;;;;2.40;0.97;;;11.10;99.90;;;;;;5014672;28;20458;-77
2021/01/21 01:24:45;;;;;;;3.00;1.20;;;11.10;99.90;;;;;;5014852;28;20449;-76
2021/01/21 01:27:12;;;;;;;5.10;1.20;;;11.20;99.90;;;;;;5014874;28;21041;-76
2021/01/21 01:29:38;;;;;;;4.30;1.37;;;11.20;99.90;;;;;;5014038;28;20452;-77
2021/01/21 01:32:05;;;;;;;4.10;1.57;;;11.20;99.90;;;;;;5014170;28;20481;-76
2021/01/21 01:34:31;;;;;;;4.20;1.23;;;11.30;99.90;;;;;;5014460;28;20906;-77
2021/01/21 01:36:57;;;;;;;7.40;1.33;;;11.30;99.90;;;;;;5013800;28;20571;-77
2021/01/21 01:39:24;;;;;;;3.53;1.10;;;11.20;99.90;;;;;;5014189;28;20826;-77
2021/01/21 01:41:51;;;;;;;4.43;1.33;;;11.30;99.90;;;;;;5013986;28;20446;-76
2021/01/21 01:44:17;;;;;;;4.47;1.67;;;11.20;99.90;;;;;;5014743;28;20768;-76
2021/01/21 01:46:44;;;;;;;3.93;1.27;;;11.30;99.90;;;;;;5014244;28;20450;-77
2021/01/21 01:49:11;;;;;;;6.47;1.33;;;11.20;99.90;;;;;;5014659;28;20477;-76
2021/01/21 01:51:38;;;;;;;4.30;1.50;;;11.20;99.90;;;;;;5014337;28;20445;-84
2021/01/21 01:54:05;;;;;;;4.30;1.53;;;11.20;99.90;;;;;;5014890;28;20526;-76
2021/01/21 01:56:32;;;;;;;3.67;1.40;;;11.20;99.90;;;;;;5013907;28;20928;-75
2021/01/21 01:58:59;;;;;;;2.20;1.00;;;11.30;99.90;;;;;;5013285;28;20456;-76
2021/01/21 02:01:26;;;;;;;3.10;1.27;;;11.30;99.90;;;;;;5014086;28;20453;-76
2021/01/21 02:03:53;;;;;;;5.30;1.83;;;11.20;99.90;;;;;;5013817;28;20479;-75
2021/01/21 02:06:20;;;;;;;4.87;1.30;;;11.20;99.90;;;;;;5014084;28;20450;-77
2021/01/21 02:08:47;;;;;;;4.63;1.27;;;11.30;99.90;;;;;;5014331;28;20461;-76
2021/01/21 02:11:30;;;;;;;2.67;1.00;;;11.30;99.90;;;;;;5014836;28;20460;-76
2021/01/21 02:14:03;;;;;;;2.43;0.93;;;11.20;99.90;;;;;;5012806;28;20477;-75
2021/01/21 02:16:48;;;;;;;3.90;1.20;;;11.20;99.90;;;;;;5013918;28;20438;-76
2021/01/21 02:19:49;;;;;;;4.90;1.10;;;11.20;99.90;;;;;;5014052;28;20452;-75
2021/01/21 02:22:55;;;;;;;4.20;1.37;;;11.20;99.90;;;;;;5011207;28;20457;-76
2021/01/21 02:25:26;;;;;;;2.83;1.13;;;11.20;99.90;;;;;;4994417;28;20473;-75
2021/01/21 02:28:24;;;;;;;3.50;1.10;;;11.10;99.90;;;;;;5012039;28;20446;-75
2021/01/21 02:31:02;;;;;;;3.40;1.20;;;11.10;99.90;;;;;;5013523;28;20449;-75
2021/01/21 02:33:51;;;;;;;4.30;1.20;;;11.10;99.90;;;;;;5013882;28;20483;-76
2021/01/21 02:36:20;;;;;;;3.23;1.00;;;11.20;99.90;;;;;;5014081;28;20499;-75
2021/01/21 02:38:48;;;;;;;5.40;1.47;;;11.20;99.90;;;;;;5013752;28;20499;-75
2021/01/21 02:41:14;;;;;;;3.43;1.23;;;11.20;99.90;;;;;;5013717;28;20449;-75
2021/01/21 02:43:41;;;;;;;3.17;1.20;;;11.20;99.90;;;;;;5012972;28;20941;-82
2021/01/21 02:46:07;;;;;;;3.40;1.57;;;11.10;99.90;;;;;;5014066;28;20448;-75
2021/01/21 02:48:35;;;;;;;3.40;1.23;;;11.20;99.90;;;;;;5013280;28;20534;-75
2021/01/21 02:51:10;;;;;;;4.97;1.27;;;11.20;99.90;;;;;;5014899;28;20445;-75
2021/01/21 02:53:40;;;;;;;4.70;1.30;;;11.20;99.90;;;;;;5018092;28;20542;-75
2021/01/21 02:56:16;;;;;;;3.80;1.20;;;11.20;99.90;;;;;;5018002;28;20438;-76
2021/01/21 02:58:44;;;;;;;2.00;0.90;;;11.20;99.90;;;;;;5010818;28;20446;-77
2021/01/21 03:01:11;;;;;;;2.60;1.10;;;11.30;99.90;;;;;;5017354;28;20457;-75
2021/01/21 03:03:40;;;;;;;3.40;1.03;;;11.50;99.90;;;;;;5017201;28;20453;-77
2021/01/21 03:06:09;;;;;;;3.93;1.00;;;11.60;99.90;;;;;;5016592;28;20549;-76
2021/01/21 03:08:36;;;;;;;6.33;1.23;;;11.70;99.90;;;;;;5017169;28;20464;-76
2021/01/21 03:11:10;;;;;;;3.27;1.20;;;11.70;99.90;;;;;;5016785;28;20457;-77
2021/01/21 03:13:38;;;;;;;3.93;1.20;;;11.80;99.90;;;;;;5016696;28;20488;-77
2021/01/21 03:16:05;;;;;;;2.47;1.10;;;11.80;99.90;;;;;;5017015;28;20445;-77
2021/01/21 03:18:31;;;;;;;3.03;1.17;;;11.70;99.90;;;;;;5017696;28;20817;-76
2021/01/21 03:20:58;;;;;;;2.10;0.80;;;11.70;99.90;;;;;;5017013;28;20782;-77
2021/01/21 03:23:25;;;;;;;3.07;1.00;;;11.70;99.90;;;;;;5016783;28;20984;-77
2021/01/21 03:25:51;;;;;;;9.77;1.50;;;11.80;99.90;;;;;;5016940;28;20492;-76
2021/01/21 03:28:17;;;;;;;3.13;0.90;;;11.90;99.90;;;;;;5016387;28;20503;-76
2021/01/21 03:30:44;;;;;;;3.97;1.27;;;11.90;99.90;;;;;;5016852;28;20491;-77
2021/01/21 03:33:10;;;;;;;2.80;1.03;;;11.90;99.90;;;;;;5016492;28;20981;-77
2021/01/21 03:35:37;;;;;;;2.97;1.10;;;11.90;99.90;;;;;;5016866;28;20450;-77
2021/01/21 03:38:03;;;;;;;3.47;1.50;;;12.00;99.90;;;;;;5016738;28;20462;-76
2021/01/21 03:40:30;;;;;;;6.30;1.10;;;12.00;99.90;;;;;;5016553;28;20488;-77
2021/01/21 03:42:57;;;;;;;3.77;1.20;;;12.00;99.90;;;;;;5016225;28;20470;-76
2021/01/21 03:45:23;;;;;;;4.27;1.37;;;12.10;99.90;;;;;;5016988;28;20508;-76
2021/01/21 03:47:49;;;;;;;4.17;1.20;;;12.00;99.90;;;;;;5016146;28;20591;-76
2021/01/21 03:50:15;;;;;;;4.50;1.13;;;12.00;99.90;;;;;;5016469;28;20491;-76
2021/01/21 03:52:42;;;;;;;3.20;1.10;;;12.10;99.90;;;;;;5016394;28;20489;-78
2021/01/21 03:55:09;;;;;;;4.33;1.00;;;12.10;99.90;;;;;;5016794;28;20520;-77
2021/01/21 03:57:36;;;;;;;4.07;1.30;;;12.10;99.90;;;;;;5019370;28;20536;-77
2021/01/21 04:00:05;;;;;;;4.30;1.33;;;12.20;99.90;;;;;;5008313;28;20454;-77
2021/01/21 04:02:31;;;;;;;4.30;1.33;;;12.10;99.90;;;;;;5015896;28;20491;-75
2021/01/21 04:04:57;;;;;;;5.57;1.10;;;12.10;99.90;;;;;;5015022;28;20454;-76
2021/01/21 04:07:24;;;;;;;5.10;1.17;;;12.00;99.90;;;;;;5016049;28;20468;-75
2021/01/21 04:09:50;;;;;;;2.73;0.80;;;12.00;99.90;;;;;;5014994;28;20461;-76
2021/01/21 04:12:16;;;;;;;3.87;1.27;;;12.00;99.90;;;;;;5015179;28;20494;-77
2021/01/21 04:14:44;;;;;;;3.43;1.20;;;11.90;99.90;;;;;;5015758;28;20462;-80
2021/01/21 04:17:10;;;;;;;2.63;1.00;;;12.00;99.90;;;;;;5015824;28;20506;-76
2021/01/21 04:19:36;;;;;;;2.67;1.67;;;12.00;99.90;;;;;;5016037;28;20536;-76
2021/01/21 04:22:03;;;;;;;2.20;0.97;;;12.10;99.90;;;;;;5015556;28;20454;-77
2021/01/21 04:24:29;;;;;;;4.57;1.20;;;12.10;99.90;;;;;;5015400;28;20442;-75
2021/01/21 04:26:56;;;;;;;3.37;1.10;;;12.20;99.90;;;;;;5015827;28;20457;-77
2021/01/21 04:29:22;;;;;;;3.50;1.20;;;12.20;99.90;;;;;;5016019;28;20458;-76
2021/01/21 04:31:49;;;;;;;3.40;1.00;;;12.20;99.90;;;;;;5015548;28;20453;-75
2021/01/21 04:34:15;;;;;;;2.77;0.90;;;12.20;99.90;;;;;;5015708;28;20583;-76
2021/01/21 04:36:42;;;;;;;5.23;1.03;;;12.20;99.90;;;;;;5015710;28;20456;-85
2021/01/21 04:39:08;;;;;;;2.10;0.83;;;12.20;99.90;;;;;;5015108;28;20503;-75
2021/01/21 04:41:34;;;;;;;5.23;1.07;;;12.20;99.90;;;;;;5015316;28;20489;-75
2021/01/21 04:44:01;;;;;;;3.50;1.07;;;12.20;99.90;;;;;;5014999;28;20449;-75
2021/01/21 04:46:28;;;;;;;2.67;0.90;;;12.20;99.90;;;;;;5015345;28;20458;-75
2021/01/21 04:48:57;;;;;;;4.43;1.13;;;12.20;99.90;;;;;;5015293;28;20482;-75
2021/01/21 04:51:24;;;;;;;3.87;0.90;;;12.20;99.90;;;;;;5014816;28;20951;-76
2021/01/21 04:53:57;;;;;;;2.63;0.97;;;12.20;99.90;;;;;;5014488;28;20490;-75
2021/01/21 04:56:28;;;;;;;2.53;0.90;;;12.20;99.90;;;;;;5014508;28;20446;-76
2021/01/21 04:58:58;;;;;;;2.17;0.90;;;12.20;99.90;;;;;;5013916;28;20922;-75
2021/01/21 05:01:24;;;;;;;2.60;0.90;;;12.20;99.90;;;;;;5015135;28;20529;-75
2021/01/21 05:03:51;;;;;;;2.53;1.10;;;12.20;99.90;;;;;;5014874;28;20906;-76
2021/01/21 05:06:19;;;;;;;7.43;1.17;;;12.20;99.90;;;;;;5014870;28;20499;-75
2021/01/21 05:08:46;;;;;;;2.30;1.00;;;12.20;99.90;;;;;;5014822;28;20460;-76
2021/01/21 05:11:12;;;;;;;3.20;0.83;;;12.30;99.90;;;;;;5014726;28;20452;-76
2021/01/21 05:13:38;;;;;;;3.07;0.80;;;12.30;99.90;;;;;;5014304;28;20482;-75
2021/01/21 05:16:05;;;;;;;2.77;1.00;;;12.30;99.90;;;;;;5025799;28;20473;-75
2021/01/21 05:18:35;;;;;;;3.33;0.80;;;12.30;99.90;;;;;;5034717;28;20536;-76
2021/01/21 05:21:04;;;;;;;2.60;0.80;;;12.30;99.90;;;;;;5034309;28;20459;-76
2021/01/21 05:23:31;;;;;;;4.73;1.43;;;12.30;99.90;;;;;;5017862;28;20468;-76
2021/01/21 05:25:58;;;;;;;3.20;0.70;;;12.30;99.90;;;;;;5014533;28;20454;-77
2021/01/21 05:28:26;;;;;;;1.90;0.70;;;12.30;99.90;;;;;;5014255;28;20454;-74
2021/01/21 05:30:53;;;;;;;2.97;0.73;;;12.30;99.90;;;;;;5013651;28;20458;-77
2021/01/21 05:33:21;;;;;;;4.63;1.00;;;12.20;99.90;;;;;;5014825;28;20485;-77
2021/01/21 05:35:51;;;;;;;3.20;1.00;;;12.20;99.90;;;;;;5014475;28;20453;-83
2021/01/21 05:38:17;;;;;;;3.40;0.80;;;12.00;99.90;;;;;;5014092;28;20462;-76
2021/01/21 05:40:47;;;;;;;2.20;0.87;;;11.70;99.90;;;;;;5013739;28;20479;-83
2021/01/21 05:43:14;;;;;;;2.77;0.70;;;11.50;99.90;;;;;;5014065;28;20462;-76
2021/01/21 05:45:44;;;;;;;3.13;0.80;;;11.40;99.90;;;;;;5014492;28;20448;-79
2021/01/21 05:48:12;;;;;;;4.07;0.90;;;10.70;99.90;;;;;;5013040;28;20504;-77
2021/01/21 05:50:38;;;;;;;2.53;0.80;;;9.80;99.90;;;;;;5013652;28;20454;-78
2021/01/21 05:53:07;;;;;;;3.20;0.80;;;9.20;99.90;;;;;;5013581;28;20845;-79
2021/01/21 05:55:36;;;;;;;2.17;0.80;;;8.80;99.90;;;;;;5013574;28;20968;-77
2021/01/21 05:58:04;;;;;;;4.13;1.10;;;8.60;99.90;;;;;;5002479;28;20965;-78
2021/01/21 06:00:32;;;;;;;2.53;1.20;;;8.40;99.90;;;;;;4994069;28;20933;-78
2021/01/21 06:02:59;;;;;;;3.20;0.80;;;8.10;99.90;;;;;;4993622;28;20454;-78
2021/01/21 06:05:26;;;;;;;2.17;0.70;;;7.90;99.90;;;;;;4994055;28;20449;-77
2021/01/21 06:07:53;;;;;;;4.47;2.20;;;7.60;99.90;;;;;;4993342;28;20745;-77
2021/01/21 06:10:20;;;;;;;1.90;0.80;;;7.30;99.90;;;;;;4993455;28;20450;-76
2021/01/21 06:12:48;;;;;;;2.10;0.80;;;7.10;99.90;;;;;;5005544;28;20481;-84
2021/01/21 06:15:16;;;;;;;2.00;0.90;;;7.00;99.90;;;;;;5013049;28;20508;-77
2021/01/21 06:17:44;;;;;;;5.30;0.90;;;6.90;99.90;;;;;;5013397;28;20553;-78
2021/01/21 06:20:11;;;;;;;2.53;0.87;;;6.80;99.90;;;;;;5012620;28;20446;-78
2021/01/21 06:22:40;;;;;;;4.40;1.00;;;6.80;99.90;;;;;;5012932;28;21013;-78
2021/01/21 06:25:12;;;;;;;2.70;1.03;;;6.80;99.90;;;;;;5012978;28;20445;-79
2021/01/21 06:27:41;;;;;;;2.00;0.80;;;6.70;99.90;;;;;;5017202;28;20441;-79
2021/01/21 06:30:11;;;;;;;5.77;0.90;;;6.70;99.90;;;;;;5017612;28;20459;-78
2021/01/21 06:32:47;;;;;;;1.60;0.70;;;6.50;99.90;;;;;;5017306;28;20530;-78
2021/01/21 06:35:19;;;;;;;2.20;0.70;;;6.50;99.90;;;;;;5017633;28;20437;-77
2021/01/21 06:37:50;;;;;;;1.90;0.80;;;6.40;99.90;;;;;;5017889;28;20441;-81
2021/01/21 06:40:18;;;;;;;2.67;1.00;;;6.40;99.90;;;;;;5017554;28;20438;-78
2021/01/21 06:43:03;;;;;;;5.50;0.90;;;6.30;99.90;;;;;;5017619;28;20922;-77
2021/01/21 06:45:32;;;;;;;4.80;0.90;;;6.30;99.90;;;;;;5017726;28;20968;-78
2021/01/21 06:47:59;;;;;;;3.27;1.10;;;6.30;99.90;;;;;;5017089;28;20456;-79
2021/01/21 06:50:29;;;;;;;2.43;0.90;;;6.40;99.90;;;;;;5017695;28;20481;-76
2021/01/21 06:52:59;;;;;;;2.20;0.73;;;6.30;99.90;;;;;;5016644;28;20516;-76
2021/01/21 06:55:26;;;;;;;2.33;0.87;;;6.30;99.90;;;;;;5017651;28;20496;-76
2021/01/21 06:57:55;;;;;;;3.07;0.90;;;6.20;99.90;;;;;;5016330;28;20454;-77
2021/01/21 07:00:45;;;;;;;3.03;1.10;;;6.20;99.90;;;;;;5016723;28;20453;-77
2021/01/21 07:03:28;;;;;;;5.17;0.90;;;6.20;99.90;;;;;;4992381;28;20472;-77
2021/01/21 07:05:59;;;;;;;5.20;1.00;;;6.20;99.90;;;;;;4996934;28;20442;-77
2021/01/21 07:08:26;;;;;;;4.90;0.90;;;6.20;99.90;;;;;;4997254;28;20466;-78
2021/01/21 07:10:58;;;;;;;3.83;1.37;;;6.10;99.90;;;;;;4996451;28;20466;-77
2021/01/21 07:13:25;;;;;;;3.40;0.97;;;6.10;99.90;;;;;;5006722;28;20562;-78
2021/01/21 07:15:56;;;;;;;6.70;1.13;;;6.10;99.90;;;;;;5015601;28;20456;-82
2021/01/21 07:18:24;;;;;;;2.73;0.77;;;6.10;99.90;;;;;;5015704;28;20446;-77
2021/01/21 07:21:12;;;;;;;2.60;1.00;;;6.10;99.90;;;;;;5015366;28;20454;-83
2021/01/21 07:23:44;;;;;;;5.90;1.50;;;6.00;99.90;;;;;;5016517;28;20508;-77
2021/01/21 07:26:33;;;;;;;4.93;2.10;;;6.00;99.90;;;;;;5016084;28;21053;-76
2021/01/21 07:29:19;;;;;;;4.93;1.30;;;6.00;99.90;;;;;;5015758;28;20504;-76
2021/01/21 07:32:05;;;;;;;4.90;1.40;;;6.00;99.90;;;;;;5016348;28;20442;-75
2021/01/21 07:34:39;;;;;;;3.47;1.00;;;6.00;99.90;;;;;;5016583;28;20544;-76
2021/01/21 07:37:15;;;;;;;9.07;3.07;;;6.00;99.90;;;;;;5015688;28;20450;-76
2021/01/21 07:39:59;;;;;;;5.83;1.00;;;6.10;99.90;;;;;;5015850;28;20460;-75
2021/01/21 07:42:51;;;;;;;10.43;1.97;;;6.20;99.90;;;;;;5016311;28;20449;-76
2021/01/21 07:45:28;;;;;;;6.90;1.23;;;6.20;99.90;;;;;;5016117;28;20441;-76
2021/01/21 07:47:59;;;;;;;3.57;1.20;;;6.20;99.90;;;;;;5015930;28;20527;-76
2021/01/21 07:50:32;;;;;;;4.03;1.10;;;6.30;99.90;;;;;;5016679;28;20473;-76
2021/01/21 07:53:01;;;;;;;2.70;0.90;;;6.30;99.90;;;;;;5015672;28;20480;-76
2021/01/21 07:55:29;;;;;;;5.53;1.93;;;6.40;99.90;;;;;;5015666;28;20453;-76
2021/01/21 07:58:14;;;;;;;6.80;1.40;;;6.50;99.90;;;;;;5016501;28;20450;-76
2021/01/21 08:00:41;;;;;;;4.73;1.53;;;6.30;99.90;;;;;;5016778;28;20444;-77
2021/01/21 08:03:07;;;;;;;6.13;1.97;;;6.30;99.90;;;;;;5015921;28;20522;-76
2021/01/21 08:05:34;;;;;;;5.33;1.40;;;6.30;99.90;;;;;;4999951;28;20545;-76
2021/01/21 08:08:03;;;;;;;7.80;1.40;;;6.30;99.90;;;;;;4996485;28;20549;-77
2021/01/21 08:10:31;;;;;;;10.00;3.83;;;6.30;99.90;;;;;;4999113;28;20461;-76
2021/01/21 08:12:58;;;;;;;6.20;1.40;;;6.30;99.90;;;;;;5026254;28;20583;-75
2021/01/21 08:15:26;;;;;;;3.67;1.70;;;6.20;99.90;;;;;;5019296;28;21070;-77
2021/01/21 08:17:54;;;;;;;6.57;1.27;;;6.20;99.90;;;;;;5018178;28;20465;-79
2021/01/21 08:20:22;;;;;;;3.50;1.53;;;6.20;99.90;;;;;;5018462;28;20501;-77
2021/01/21 08:22:56;;;;;;;6.23;1.73;;;6.20;99.90;;;;;;5028279;28;20946;-76
2021/01/21 08:25:24;;;;;;;2.97;1.30;;;6.20;99.90;;;;;;5023182;28;20434;-77
2021/01/21 08:27:52;;;;;;;5.77;1.40;;;6.20;99.90;;;;;;5021497;28;20449;-79
2021/01/21 08:30:21;;;;;;;4.40;1.20;;;6.10;99.90;;;;;;5020137;28;20789;-77
2021/01/21 08:32:52;;;;;;;3.80;1.13;;;6.10;99.90;;;;;;5021518;28;20975;-77
2021/01/21 08:35:22;;;;;;;5.20;1.40;;;6.10;99.90;;;;;;5027246;28;20448;-76
2021/01/21 08:37:52;;;;;;;5.47;1.53;;;6.10;99.90;;;;;;5017447;28;20457;-77
2021/01/21 08:40:20;;;;;;;5.90;1.23;;;6.10;99.90;;;;;;5004585;28;20486;-77
2021/01/21 08:42:50;;;;;;;12.87;1.40;;;6.10;99.90;;;;;;4995869;28;20519;-77
2021/01/21 08:45:18;;;;;;;4.27;1.43;;;6.20;99.90;;;;;;4995460;28;20451;-77
2021/01/21 08:47:46;;;;;;;3.37;1.43;;;6.20;99.90;;;;;;4995743;28;20455;-77
2021/01/21 08:50:14;;;;;;;3.77;1.20;;;6.30;99.90;;;;;;4994968;28;20490;-78
2021/01/21 08:53:00;;;;;;;3.83;1.40;;;6.30;99.90;;;;;;4997720;28;20499;-76
2021/01/21 08:55:37;;;;;;;4.70;1.77;;;6.30;99.90;;;;;;5015556;28;20438;-77
2021/01/21 08:58:05;;;;;;;5.50;1.23;;;6.40;99.90;;;;;;5014346;28;20471;-77
2021/01/21 09:00:32;;;;;;;9.10;1.40;;;6.50;99.90;;;;;;5015368;28;20455;-77
2021/01/21 09:02:59;;;;;;;4.73;1.30;;;6.50;99.90;;;;;;5014367;28;20461;-76
2021/01/21 09:05:26;;;;;;;6.90;1.23;;;6.60;99.90;;;;;;5009676;28;20482;-77
2021/01/21 09:08:01;;;;;;;8.70;1.50;;;6.60;99.90;;;;;;4997665;28;20537;-80
2021/01/21 09:10:37;;;;;;;6.03;1.60;;;6.60;99.90;;;;;;4995598;28;20435;-77
2021/01/21 09:13:04;;;;;;;8.13;2.20;;;6.70;99.90;;;;;;5000091;28;20523;-77
2021/01/21 09:15:31;;;;;;;5.40;1.10;;;6.70;99.90;;;;;;5014624;28;20576;-79
2021/01/21 09:18:05;;;;;;;4.90;1.43;;;6.80;99.90;;;;;;5014504;28;20548;-77
2021/01/21 09:20:32;;;;;;;4.97;1.20;;;6.80;99.90;;;;;;5015195;28;20456;-77
2021/01/21 09:23:11;;;;;;;3.80;1.30;;;6.80;99.90;;;;;;5014454;28;20488;-77
2021/01/21 09:25:38;;;;;;;10.17;2.43;;;6.80;99.90;;;;;;5014831;28;20445;-77
2021/01/21 09:28:10;;;;;;;5.87;1.17;;;6.80;99.90;;;;;;5014946;28;20514;-77
2021/01/21 09:30:37;;;;;;;12.17;1.90;;;6.90;99.90;;;;;;5014278;28;20966;-77
2021/01/21 09:33:03;;;;;;;7.70;2.33;;;7.00;99.90;;;;;;5003759;28;21036;-78
2021/01/21 09:35:30;;;;;;;4.03;1.50;;;7.00;99.90;;;;;;5007182;28;20593;-79
2021/01/21 09:37:59;;;;;;;4.77;1.30;;;7.10;99.90;;;;;;5008020;28;20473;-77
2021/01/21 09:40:27;;;;;;;3.93;1.40;;;7.10;99.90;;;;;;5013774;28;20516;-77
2021/01/21 09:42:55;;;;;;;7.83;1.33;;;7.10;99.90;;;;;;5012982;28;20481;-89
2021/01/21 09:45:25;;;;;;;4.43;1.03;;;7.10;99.90;;;;;;5013898;28;20592;-77
2021/01/21 09:47:54;;;;;;;4.60;1.30;;;7.20;99.90;;;;;;5018747;28;20516;-77
2021/01/21 09:50:23;;;;;;;2.57;1.23;;;7.30;99.90;;;;;;5033501;28;20820;-77
2021/01/21 09:52:50;;;;;;;4.13;1.33;;;7.40;99.90;;;;;;5034213;28;20550;-76
2021/01/21 09:55:18;;;;;;;10.90;1.67;;;7.30;99.90;;;;;;5033488;28;20468;-77
2021/01/21 09:57:45;;;;;;;4.53;1.67;;;7.40;99.90;;;;;;5033712;28;20453;-77
2021/01/21 10:00:14;;;;;;;3.13;1.20;;;7.50;99.90;;;;;;5033406;28;20463;-77
2021/01/21 10:02:42;;;;;;;5.47;1.83;;;7.70;99.90;;;;;;5033592;28;20464;-77
2021/01/21 10:05:10;;;;;;;8.47;1.93;;;7.80;99.90;;;;;;5014858;28;20454;-77
2021/01/21 10:07:36;;;;;;;6.43;2.20;;;7.90;99.90;;;;;;4999225;28;20449;-79
2021/01/21 10:10:04;;;;;;;6.17;1.40;;;8.00;99.90;;;;;;5011946;28;20446;-77
2021/01/21 10:12:30;;;;;;;5.60;1.23;;;8.10;99.90;;;;;;5010729;28;20450;-75
2021/01/21 10:14:58;;;;;;;4.70;2.00;;;8.20;99.90;;;;;;5012921;28;20461;-75
2021/01/21 10:17:25;;;;;;;13.53;1.47;;;8.10;99.90;;;;;;5013281;28;20450;-74
2021/01/21 10:19:52;;;;;;;6.73;1.77;;;8.10;99.90;;;;;;5013104;28;20792;-74
2021/01/21 10:22:18;;;;;;;5.30;1.23;;;8.10;99.90;;;;;;5012414;28;20517;-74
2021/01/21 10:24:46;;;;;;;8.10;1.30;;;8.10;99.90;;;;;;5015125;28;20456;-74
2021/01/21 10:27:13;;;;;;;7.10;1.70;;;8.10;99.90;;;;;;5012435;28;20454;-74
2021/01/21 10:29:39;;;;;;;5.30;2.00;;;8.10;99.90;;;;;;5012529;28;20450;-75
2021/01/21 10:32:05;;;;;;;6.87;2.00;;;8.10;99.90;;;;;;5012381;28;20834;-78
2021/01/21 10:34:32;;;;;;;10.70;1.47;;;8.10;99.90;;;;;;5009893;28;20507;-75
2021/01/21 10:36:59;;;;;;;6.00;1.43;;;8.10;99.90;;;;;;5010524;28;21029;-76
2021/01/21 10:39:26;;;;;;;9.03;1.97;;;8.10;99.90;;;;;;5004197;28;20494;-75
2021/01/21 10:41:52;;;;;;;8.83;1.60;;;8.20;99.90;;;;;;5012820;28;20532;-75
2021/01/21 10:44:19;;;;;;;6.67;2.30;;;8.40;99.90;;;;;;5012043;28;20976;-75
2021/01/21 10:46:45;;;;;;;5.87;1.77;;;8.60;99.90;;;;;;5012807;28;20924;-75
2021/01/21 10:49:14;;;;;;;6.60;1.67;;;8.90;99.90;;;;;;5019428;28;20530;-77
2021/01/21 10:51:41;;;;;;;6.10;1.80;;;9.00;99.90;;;;;;5021289;28;20758;-74
2021/01/21 10:54:08;;;;;;;4.70;1.63;;;9.10;99.90;;;;;;5019286;28;20484;-74
2021/01/21 10:56:35;;;;;;;4.67;1.40;;;8.80;99.90;;;;;;5010511;28;20491;-75
2021/01/21 10:59:02;;;;;;;6.17;1.40;;;8.70;99.90;;;;;;5002883;28;20972;-75
2021/01/21 11:01:28;;;;;;;5.17;1.27;;;8.80;99.90;;;;;;5005495;28;20504;-75
2021/01/21 11:03:55;;;;;;;5.07;2.17;;;8.80;99.90;;;;;;5010476;28;20545;-75
2021/01/21 11:06:22;;;;;;;3.80;1.57;;;9.00;99.90;;;;;;5001358;28;20454;-75
2021/01/21 11:08:48;;;;;;;6.37;1.73;;;9.20;99.90;;;;;;5026312;28;20476;-74
2021/01/21 11:11:15;;;;;;;7.23;1.33;;;9.30;99.90;;;;;;5025663;28;20545;-77
2021/01/21 11:13:42;;;;;;;18.23;6.00;;;9.20;99.90;;;;;;5023902;28;20607;-74
2021/01/21 11:16:10;;;;;;;7.23;1.87;;;9.40;99.90;;;;;;5033626;28;20503;-76
2021/01/21 11:18:36;;;;;;;5.10;1.33;;;9.10;99.90;;;;;;5030732;28;20460;-75
2021/01/21 11:21:02;;;;;;;7.63;1.67;;;9.00;99.90;;;;;;5021644;28;20467;-75
2021/01/21 11:23:29;;;;;;;5.80;1.77;;;8.70;99.90;;;;;;5028443;28;20564;-75
2021/01/21 11:25:55;;;;;;;4.67;1.50;;;8.70;99.90;;;;;;5023957;28;20465;-74
2021/01/21 11:28:22;;;;;;;3.73;1.10;;;8.80;99.90;;;;;;5023295;28;20937;-74
2021/01/21 11:30:49;;;;;;;4.80;1.33;;;9.00;99.90;;;;;;5014775;28;20503;-75
2021/01/21 11:33:16;;;;;;;6.10;1.50;;;9.00;99.90;;;;;;5009265;28;20519;-76
2021/01/21 11:35:42;;;;;;;8.67;1.90;;;8.90;99.90;;;;;;5005103;28;20604;-74
2021/01/21 11:38:09;;;;;;;6.20;1.63;;;8.80;99.90;;;;;;5006666;28;20469;-75
2021/01/21 11:40:35;;;;;;;8.13;1.47;;;8.90;99.90;;;;;;5024830;28;20817;-75
2021/01/21 11:43:01;;;;;;;6.63;1.50;;;8.90;99.90;;;;;;5018304;28;20537;-75
2021/01/21 11:45:30;;;;;;;3.17;1.10;;;9.10;99.90;;;;;;5006285;28;20532;-75
2021/01/21 11:47:56;;;;;;;6.00;1.93;;;9.10;99.90;;;;;;5027161;28;20453;-75
2021/01/21 11:50:22;;;;;;;8.97;3.33;;;9.20;99.90;;;;;;5022780;28;20580;-75
2021/01/21 11:52:49;;;;;;;2.80;1.20;;;9.20;99.90;;;;;;5014937;28;20460;-77
2021/01/21 11:55:15;;;;;;;5.17;1.17;;;9.00;99.90;;;;;;5007769;28;20988;-80
2021/01/21 11:57:42;;;;;;;7.33;1.37;;;9.00;99.90;;;;;;5014309;28;20812;-77
2021/01/21 12:00:10;;;;;;;4.07;1.30;;;9.10;99.90;;;;;;5015115;28;20454;-75
2021/01/21 12:02:38;;;;;;;5.20;1.50;;;9.40;99.90;;;;;;5014863;28;20989;-75
2021/01/21 12:05:05;;;;;;;10.23;2.33;;;9.30;99.90;;;;;;5024877;28;20498;-81
2021/01/21 12:07:32;;;;;;;3.60;1.17;;;9.40;99.90;;;;;;5018622;28;21012;-76
2021/01/21 12:09:59;;;;;;;3.90;1.50;;;9.10;99.90;;;;;;5020199;28;20796;-75
2021/01/21 12:12:25;;;;;;;2.90;1.70;;;9.20;99.90;;;;;;5018067;28;20460;-75
2021/01/21 12:14:52;;;;;;;9.10;2.83;;;9.30;99.90;;;;;;5028390;28;20984;-77
2021/01/21 12:17:18;;;;;;;5.10;1.40;;;9.30;99.90;;;;;;5017891;28;20924;-75
2021/01/21 12:19:46;;;;;;;4.40;1.50;;;9.30;99.90;;;;;;5018891;28;20499;-77
2021/01/21 12:22:13;;;;;;;3.30;1.37;;;9.30;99.90;;;;;;5006162;28;20450;-75
2021/01/21 12:24:43;;;;;;;3.90;1.60;;;9.20;99.90;;;;;;5022576;28;20454;-75
2021/01/21 12:27:11;;;;;;;5.33;1.40;;;9.20;99.90;;;;;;5017317;28;20467;-76
2021/01/21 12:29:37;;;;;;;8.10;1.47;;;9.20;99.90;;;;;;5034742;28;20477;-77
2021/01/21 12:32:04;;;;;;;3.83;1.40;;;9.10;99.90;;;;;;5025871;28;20468;-77
2021/01/21 12:34:30;;;;;;;3.10;1.10;;;9.20;99.90;;;;;;5011905;28;20578;-76
2021/01/21 12:36:58;;;;;;;8.10;1.33;;;9.20;99.90;;;;;;5011259;28;20494;-86
2021/01/21 12:39:25;;;;;;;2.90;1.60;;;9.40;99.90;;;;;;5008045;28;20490;-76
2021/01/21 12:41:51;;;;;;;4.60;1.30;;;9.60;99.90;;;;;;5033324;28;20453;-76
2021/01/21 12:44:19;;;;;;;6.43;1.77;;;9.60;99.90;;;;;;5033722;28;20490;-76
2021/01/21 12:46:45;;;;;;;6.20;1.30;;;9.40;99.90;;;;;;5033364;28;20453;-77
2021/01/21 12:49:13;;;;;;;5.37;1.17;;;9.30;99.90;;;;;;5032206;28;20491;-76
2021/01/21 12:51:39;;;;;;;3.63;1.20;;;9.60;99.90;;;;;;5034562;28;20481;-76
2021/01/21 12:54:07;;;;;;;3.40;1.20;;;9.70;99.90;;;;;;5017717;28;20931;-78
2021/01/21 12:56:34;;;;;;;4.90;1.30;;;9.60;99.90;;;;;;5023056;28;20453;-78
2021/01/21 12:59:01;;;;;;;3.30;1.20;;;9.30;99.90;;;;;;5031219;28;20544;-86
2021/01/21 13:01:28;;;;;;;5.53;1.40;;;9.40;99.90;;;;;;5016725;28;20545;-77